Time;durP1;ratioP1;P1;durP2;ratioP2;P2;SDS_P1;SDS_P2;PMS_P1;PMS_P2;Temp;Humidity;BMP_temperature;BMP_pressure;BME280_temperature;BME280_humidity;BME280_pressure;Samples;Min_cycle;Max_cycle;Signal;HPM_P1;HPM_P2
2023/04/22 00:00:13;;;;;;;4.10;2.00;;;;;;;;;;5073110;28;20032;-81
2023/04/22 00:02:39;;;;;;;3.15;2.10;;;;;;;;;;5073389;28;20038;-81
2023/04/22 00:05:07;;;;;;;3.17;2.10;;;;;;;;;;5071627;28;20029;-83
2023/04/22 00:07:32;;;;;;;2.03;1.80;;;;;;;;;;5070030;28;20124;-83
2023/04/22 00:09:58;;;;;;;3.35;2.50;;;;;;;;;;5072523;28;20064;-82
2023/04/22 00:12:24;;;;;;;5.90;3.85;;;;;;;;;;5076962;28;20044;-82
2023/04/22 00:14:49;;;;;;;5.90;3.33;;;;;;;;;;5077000;28;20036;-82
2023/04/22 00:17:15;;;;;;;3.00;2.30;;;;;;;;;;5077036;28;20410;-82
2023/04/22 00:19:41;;;;;;;2.55;1.73;;;;;;;;;;5075669;28;20474;-82
2023/04/22 00:22:07;;;;;;;1.98;1.30;;;;;;;;;;5075509;28;20051;-82
2023/04/22 00:24:32;;;;;;;3.40;1.20;;;;;;;;;;5077150;28;20036;-82
2023/04/22 00:26:57;;;;;;;1.88;1.20;;;;;;;;;;5076469;28;20535;-82
2023/04/22 00:29:26;;;;;;;1.70;1.10;;;;;;;;;;5075152;28;20044;-82
2023/04/22 00:31:51;;;;;;;1.20;1.10;;;;;;;;;;5076522;28;20032;-82
2023/04/22 00:34:17;;;;;;;2.05;1.20;;;;;;;;;;5076927;28;20070;-82
2023/04/22 00:36:43;;;;;;;3.90;1.10;;;;;;;;;;5075551;28;20044;-82
2023/04/22 00:39:08;;;;;;;1.40;1.02;;;;;;;;;;5076366;28;20040;-82
2023/04/22 00:41:34;;;;;;;2.33;1.30;;;;;;;;;;5074983;28;20029;-82
2023/04/22 00:44:00;;;;;;;3.50;1.30;;;;;;;;;;5055899;28;20037;-82
2023/04/22 00:46:26;;;;;;;2.08;1.10;;;;;;;;;;5075333;28;20039;-82
2023/04/22 00:48:52;;;;;;;1.42;1.10;;;;;;;;;;5076533;28;20029;-82
2023/04/22 00:51:17;;;;;;;1.65;1.10;;;;;;;;;;5074308;28;20040;-82
2023/04/22 00:53:43;;;;;;;1.48;1.20;;;;;;;;;;5075028;28;20078;-82
2023/04/22 00:56:10;;;;;;;1.33;1.17;;;;;;;;;;5076112;28;20036;-82
2023/04/22 00:58:35;;;;;;;1.55;1.20;;;;;;;;;;5072613;28;20042;-82
2023/04/22 01:01:01;;;;;;;3.40;1.25;;;;;;;;;;5074932;28;20040;-82
2023/04/22 01:03:29;;;;;;;3.38;1.10;;;;;;;;;;5075961;28;20123;-82
2023/04/22 01:05:55;;;;;;;1.90;1.05;;;;;;;;;;5057429;28;20582;-82
2023/04/22 01:08:20;;;;;;;1.27;1.10;;;;;;;;;;5065420;28;20068;-82
2023/04/22 01:10:46;;;;;;;1.63;1.13;;;;;;;;;;5055448;28;20057;-80
2023/04/22 01:13:11;;;;;;;2.03;1.10;;;;;;;;;;5076000;28;20054;-82
2023/04/22 01:15:37;;;;;;;1.92;1.27;;;;;;;;;;5057187;28;20103;-82
2023/04/22 01:18:03;;;;;;;1.65;1.20;;;;;;;;;;5076020;28;20033;-82
2023/04/22 01:20:29;;;;;;;2.08;1.10;;;;;;;;;;5074597;28;20037;-82
2023/04/22 01:22:56;;;;;;;1.30;1.00;;;;;;;;;;5072807;28;20063;-82
2023/04/22 01:25:24;;;;;;;1.90;1.10;;;;;;;;;;5075736;28;20090;-82
2023/04/22 01:27:49;;;;;;;2.38;1.40;;;;;;;;;;5079175;28;20028;-82
2023/04/22 01:30:15;;;;;;;4.05;1.55;;;;;;;;;;5094114;22;20494;-85
2023/04/22 01:32:41;;;;;;;2.15;1.55;;;;;;;;;;5087429;28;20449;-87
2023/04/22 01:35:08;;;;;;;3.00;1.77;;;;;;;;;;5088691;28;20499;-87
2023/04/22 01:37:34;;;;;;;3.83;2.10;;;;;;;;;;5073695;28;20029;-88
2023/04/22 01:40:03;;;;;;;2.30;1.70;;;;;;;;;;5074827;28;20037;-88
2023/04/22 01:42:29;;;;;;;2.10;1.60;;;;;;;;;;5073819;28;20043;-85
2023/04/22 01:44:55;;;;;;;4.85;2.30;;;;;;;;;;5073393;28;20052;-83
2023/04/22 01:47:20;;;;;;;3.22;1.63;;;;;;;;;;5074956;28;20032;-87
2023/04/22 01:49:46;;;;;;;1.92;1.33;;;;;;;;;;5067986;28;20025;-86
2023/04/22 01:52:11;;;;;;;2.53;1.20;;;;;;;;;;5073258;28;20036;-85
2023/04/22 01:54:37;;;;;;;1.27;1.10;;;;;;;;;;5072474;28;20040;-86
2023/04/22 01:57:13;;;;;;;3.15;1.25;;;;;;;;;;5074321;28;20397;-86
2023/04/22 01:59:39;;;;;;;2.22;1.20;;;;;;;;;;5072444;28;20024;-86
2023/04/22 02:02:05;;;;;;;1.52;1.10;;;;;;;;;;5070974;28;20119;-85
2023/04/22 02:04:31;;;;;;;1.70;1.30;;;;;;;;;;5075584;28;20060;-86
2023/04/22 02:06:56;;;;;;;4.60;1.20;;;;;;;;;;5074326;28;20047;-87
2023/04/22 02:09:22;;;;;;;2.20;1.15;;;;;;;;;;5072235;28;20033;-85
2023/04/22 02:11:48;;;;;;;1.60;1.30;;;;;;;;;;5082032;28;20127;-83
2023/04/22 02:14:13;;;;;;;2.33;1.55;;;;;;;;;;5077697;28;20036;-87
2023/04/22 02:16:42;;;;;;;2.97;1.50;;;;;;;;;;5078054;28;20079;-86
2023/04/22 02:19:08;;;;;;;1.92;1.50;;;;;;;;;;5076441;28;20040;-83
2023/04/22 02:21:33;;;;;;;4.43;1.55;;;;;;;;;;5074481;28;20116;-87
2023/04/22 02:23:59;;;;;;;1.70;1.30;;;;;;;;;;5079075;28;20047;-87
2023/04/22 02:26:27;;;;;;;2.20;1.40;;;;;;;;;;5083253;28;20093;-85
2023/04/22 02:28:52;;;;;;;2.20;1.40;;;;;;;;;;5051857;28;20052;-84
2023/04/22 02:31:18;;;;;;;2.13;1.52;;;;;;;;;;5083184;28;20037;-87
2023/04/22 02:33:43;;;;;;;2.15;1.40;;;;;;;;;;5076298;28;20036;-88
2023/04/22 02:36:10;;;;;;;2.00;1.50;;;;;;;;;;5073273;28;20043;-87
2023/04/22 02:38:36;;;;;;;2.22;1.40;;;;;;;;;;5074894;28;20386;-85
2023/04/22 02:41:02;;;;;;;1.60;1.40;;;;;;;;;;5075756;28;20039;-87
2023/04/22 02:43:28;;;;;;;1.98;1.20;;;;;;;;;;5075449;28;20635;-87
2023/04/22 02:45:54;;;;;;;2.92;1.30;;;;;;;;;;5074430;28;20055;-87
2023/04/22 02:48:20;;;;;;;2.10;1.35;;;;;;;;;;5072785;28;20055;-85
2023/04/22 02:50:45;;;;;;;3.05;1.30;;;;;;;;;;5074711;28;20110;-85
2023/04/22 02:53:11;;;;;;;2.35;1.20;;;;;;;;;;5075205;28;20032;-87
2023/04/22 02:55:39;;;;;;;1.40;1.20;;;;;;;;;;5075195;28;20038;-86
2023/04/22 02:58:04;;;;;;;2.90;1.30;;;;;;;;;;5074855;28;20035;-88
2023/04/22 03:00:30;;;;;;;4.00;1.20;;;;;;;;;;5062888;28;20033;-86
2023/04/22 03:02:55;;;;;;;1.10;1.00;;;;;;;;;;5075986;28;20631;-85
2023/04/22 03:05:25;;;;;;;1.45;1.20;;;;;;;;;;5073754;28;20683;-87
2023/04/22 03:07:51;;;;;;;2.05;1.27;;;;;;;;;;5075732;28;20037;-86
2023/04/22 03:10:17;;;;;;;1.65;1.30;;;;;;;;;;5076937;28;20035;-84
2023/04/22 03:12:43;;;;;;;2.55;1.40;;;;;;;;;;5075138;28;20111;-88
2023/04/22 03:15:10;;;;;;;3.33;1.30;;;;;;;;;;5074681;28;20028;-86
2023/04/22 03:17:36;;;;;;;1.45;1.13;;;;;;;;;;5074096;28;20040;-85
2023/04/22 03:20:07;;;;;;;1.52;1.25;;;;;;;;;;5074093;28;20037;-83
2023/04/22 03:22:33;;;;;;;1.40;1.10;;;;;;;;;;5088715;28;20037;-87
2023/04/22 03:25:00;;;;;;;1.40;1.08;;;;;;;;;;5079768;28;20033;-85
2023/04/22 03:27:27;;;;;;;4.50;1.30;;;;;;;;;;5081830;28;20639;-84
2023/04/22 03:29:53;;;;;;;1.40;1.10;;;;;;;;;;5075688;28;20086;-87
2023/04/22 03:32:19;;;;;;;3.80;1.25;;;;;;;;;;5071935;28;20522;-85
2023/04/22 03:34:49;;;;;;;1.73;1.00;;;;;;;;;;5071081;28;20098;-86
2023/04/22 03:37:15;;;;;;;1.40;1.10;;;;;;;;;;5071676;28;20032;-86
2023/04/22 03:39:41;;;;;;;1.52;1.20;;;;;;;;;;5072829;28;20032;-87
2023/04/22 03:42:09;;;;;;;1.50;1.20;;;;;;;;;;5071291;28;20067;-86
2023/04/22 03:44:39;;;;;;;2.92;1.00;;;;;;;;;;5073066;28;20040;-86
2023/04/22 03:47:05;;;;;;;1.48;1.10;;;;;;;;;;5073235;28;20086;-85
2023/04/22 03:49:36;;;;;;;1.98;1.10;;;;;;;;;;5072838;28;20090;-87
2023/04/22 03:52:02;;;;;;;1.55;1.10;;;;;;;;;;5063335;28;20041;-86
2023/04/22 03:54:28;;;;;;;1.65;1.00;;;;;;;;;;5069939;28;20033;-86
2023/04/22 03:56:54;;;;;;;2.10;1.30;;;;;;;;;;5069012;28;20040;-87
2023/04/22 03:59:21;;;;;;;4.45;2.38;;;;;;;;;;5052161;28;20044;-85
2023/04/22 04:01:50;;;;;;;3.67;2.67;;;;;;;;;;5072388;28;20402;-88
2023/04/22 04:04:19;;;;;;;2.47;1.63;;;;;;;;;;5070257;28;20082;-86
2023/04/22 04:06:50;;;;;;;3.40;1.27;;;;;;;;;;5072040;28;20033;-86
2023/04/22 04:09:15;;;;;;;2.13;1.10;;;;;;;;;;5074167;28;20494;-86
2023/04/22 04:11:42;;;;;;;1.80;1.17;;;;;;;;;;5072717;28;20024;-85
2023/04/22 04:14:08;;;;;;;3.28;1.17;;;;;;;;;;5069786;28;20032;-87
2023/04/22 04:16:54;;;;;;;2.42;1.50;;;;;;;;;;5075684;28;20545;-87
2023/04/22 04:19:25;;;;;;;1.50;1.30;;;;;;;;;;5074026;28;20032;-86
2023/04/22 04:21:51;;;;;;;2.42;1.30;;;;;;;;;;5073637;28;20552;-84
2023/04/22 04:24:16;;;;;;;2.95;1.40;;;;;;;;;;5075058;28;20658;-88
2023/04/22 04:26:47;;;;;;;5.82;3.20;;;;;;;;;;5075536;28;20044;-84
2023/04/22 04:29:20;;;;;;;8.07;3.83;;;;;;;;;;5080560;28;20078;-84
2023/04/22 04:31:52;;;;;;;8.85;3.60;;;;;;;;;;5066165;28;20033;-84
2023/04/22 04:34:18;;;;;;;4.88;2.83;;;;;;;;;;5066931;28;20035;-85
2023/04/22 04:36:45;;;;;;;3.58;1.77;;;;;;;;;;5069325;28;20097;-84
2023/04/22 04:39:20;;;;;;;3.20;1.80;;;;;;;;;;5079013;28;20039;-85
2023/04/22 04:41:47;;;;;;;2.35;1.77;;;;;;;;;;5071172;28;20143;-89
2023/04/22 04:44:14;;;;;;;1.85;1.25;;;;;;;;;;5069718;28;20033;-87
2023/04/22 04:46:40;;;;;;;2.92;1.60;;;;;;;;;;5069672;28;20036;-87
2023/04/22 04:49:11;;;;;;;2.00;1.40;;;;;;;;;;5072130;28;20036;-87
2023/04/22 04:51:46;;;;;;;2.90;1.40;;;;;;;;;;5071757;28;20035;-87
2023/04/22 04:54:11;;;;;;;3.08;1.40;;;;;;;;;;5054873;28;20029;-88
2023/04/22 04:56:39;;;;;;;2.60;1.33;;;;;;;;;;5048070;28;20028;-83
2023/04/22 04:59:06;;;;;;;1.88;1.20;;;;;;;;;;5074563;28;20139;-86
2023/04/22 05:01:33;;;;;;;3.60;1.30;;;;;;;;;;5075138;28;20063;-86
2023/04/22 05:04:04;;;;;;;1.50;1.10;;;;;;;;;;5075522;28;20043;-85
2023/04/22 05:06:31;;;;;;;2.80;1.00;;;;;;;;;;5075278;28;20039;-87
2023/04/22 05:09:01;;;;;;;1.92;1.25;;;;;;;;;;5074885;28;20040;-85
2023/04/22 05:11:27;;;;;;;1.60;1.17;;;;;;;;;;5075529;28;20028;-87
2023/04/22 05:13:55;;;;;;;1.92;1.13;;;;;;;;;;5058683;28;20028;-88
2023/04/22 05:16:29;;;;;;;3.40;1.20;;;;;;;;;;5075325;28;20094;-87
2023/04/22 05:18:55;;;;;;;1.88;1.02;;;;;;;;;;5072850;28;20029;-86
2023/04/22 05:21:22;;;;;;;1.55;1.05;;;;;;;;;;5075271;28;20149;-85
2023/04/22 05:23:48;;;;;;;2.17;1.25;;;;;;;;;;5076570;28;20051;-84
2023/04/22 05:26:14;;;;;;;1.80;1.13;;;;;;;;;;5078400;28;20078;-88
2023/04/22 05:28:41;;;;;;;2.28;1.30;;;;;;;;;;5077613;28;20101;-84
2023/04/22 05:31:07;;;;;;;1.20;1.10;;;;;;;;;;5083600;28;20067;-88
2023/04/22 05:33:33;;;;;;;1.55;1.17;;;;;;;;;;5059182;28;20043;-87
2023/04/22 05:35:58;;;;;;;2.28;1.10;;;;;;;;;;5093209;28;20033;-86
2023/04/22 05:38:25;;;;;;;2.28;1.15;;;;;;;;;;5076287;28;20131;-87
2023/04/22 05:40:52;;;;;;;1.55;1.10;;;;;;;;;;5075494;28;20032;-85
2023/04/22 05:43:18;;;;;;;2.72;1.52;;;;;;;;;;5075368;28;20036;-83
2023/04/22 05:45:50;;;;;;;2.15;1.20;;;;;;;;;;5071858;28;20474;-87
2023/04/22 05:48:16;;;;;;;1.50;1.20;;;;;;;;;;5070509;28;20190;-84
2023/04/22 05:50:53;;;;;;;2.97;1.15;;;;;;;;;;5074442;28;20040;-85
2023/04/22 05:53:18;;;;;;;1.77;1.00;;;;;;;;;;5078962;28;20037;-86
2023/04/22 05:55:45;;;;;;;1.30;1.10;;;;;;;;;;5074695;28;20045;-86
2023/04/22 05:58:11;;;;;;;1.35;1.10;;;;;;;;;;5075942;28;20028;-87
2023/04/22 06:00:48;;;;;;;1.92;1.10;;;;;;;;;;5074122;28;20452;-87
2023/04/22 06:03:45;;;;;;;3.15;1.10;;;;;;;;;;5073359;28;20036;-86
2023/04/22 06:06:11;;;;;;;1.25;0.90;;;;;;;;;;5074795;28;20108;-85
2023/04/22 06:08:38;;;;;;;1.80;1.08;;;;;;;;;;5054581;28;20092;-86
2023/04/22 06:11:03;;;;;;;2.55;1.10;;;;;;;;;;5074633;28;20056;-87
2023/04/22 06:13:31;;;;;;;0.80;0.80;;;;;;;;;;5083178;28;20036;-84
2023/04/22 06:15:57;;;;;;;1.60;1.02;;;;;;;;;;5086984;28;20045;-87
2023/04/22 06:18:23;;;;;;;1.25;1.10;;;;;;;;;;5076085;28;20080;-85
2023/04/22 06:20:53;;;;;;;1.30;0.98;;;;;;;;;;5047079;28;20040;-84
2023/04/22 06:23:20;;;;;;;1.95;1.02;;;;;;;;;;5055297;28;20043;-87
2023/04/22 06:25:46;;;;;;;1.38;0.98;;;;;;;;;;5074304;28;20037;-85
2023/04/22 06:28:12;;;;;;;1.23;0.90;;;;;;;;;;5071168;28;20033;-86
2023/04/22 06:30:38;;;;;;;1.40;1.00;;;;;;;;;;5074958;28;20029;-86
2023/04/22 06:33:04;;;;;;;1.10;1.00;;;;;;;;;;5080042;28;20040;-86
2023/04/22 06:35:30;;;;;;;1.70;1.20;;;;;;;;;;5074832;28;20056;-88
2023/04/22 06:37:55;;;;;;;0.93;0.82;;;;;;;;;;5075234;28;20490;-84
2023/04/22 06:40:25;;;;;;;1.35;1.00;;;;;;;;;;5054269;28;20040;-86
2023/04/22 06:43:03;;;;;;;1.45;0.90;;;;;;;;;;5072023;28;20119;-86
2023/04/22 06:45:41;;;;;;;0.80;0.80;;;;;;;;;;5071739;28;20032;-86
2023/04/22 06:48:23;;;;;;;1.42;1.00;;;;;;;;;;5071630;28;20029;-86
2023/04/22 06:51:08;;;;;;;1.45;1.00;;;;;;;;;;5074284;28;20064;-84
2023/04/22 06:53:34;;;;;;;1.33;0.93;;;;;;;;;;5070274;28;20070;-86
2023/04/22 06:55:59;;;;;;;2.28;1.00;;;;;;;;;;5070024;28;20032;-87
2023/04/22 06:58:25;;;;;;;1.10;1.00;;;;;;;;;;5070141;28;20127;-87
2023/04/22 07:00:51;;;;;;;1.25;0.90;;;;;;;;;;5068283;28;20025;-86
2023/04/22 07:03:17;;;;;;;1.10;1.00;;;;;;;;;;5069799;28;20078;-86
2023/04/22 07:05:45;;;;;;;3.38;1.10;;;;;;;;;;5080559;28;20091;-87
2023/04/22 07:08:10;;;;;;;3.17;1.10;;;;;;;;;;5071834;28;20627;-87
2023/04/22 07:10:37;;;;;;;1.88;1.25;;;;;;;;;;5070552;28;20064;-87
2023/04/22 07:13:40;;;;;;;1.73;1.20;;;;;;;;;;5062826;28;20589;-87
2023/04/22 07:16:06;;;;;;;2.17;0.90;;;;;;;;;;5069042;28;20116;-86
2023/04/22 07:18:34;;;;;;;1.00;0.90;;;;;;;;;;5072150;28;20063;-86
2023/04/22 07:20:59;;;;;;;1.15;0.80;;;;;;;;;;5069998;28;20098;-85
2023/04/22 07:23:25;;;;;;;0.77;0.77;;;;;;;;;;5072575;28;20028;-87
2023/04/22 07:25:51;;;;;;;1.30;0.90;;;;;;;;;;5069303;28;20399;-86
2023/04/22 07:28:16;;;;;;;1.85;0.80;;;;;;;;;;5064144;28;20081;-85
2023/04/22 07:30:42;;;;;;;1.45;0.90;;;;;;;;;;5069412;28;20098;-87
2023/04/22 07:33:07;;;;;;;1.25;0.90;;;;;;;;;;5075785;28;20040;-88
2023/04/22 07:35:33;;;;;;;1.00;0.90;;;;;;;;;;5076262;28;20174;-88
2023/04/22 07:37:58;;;;;;;1.38;1.00;;;;;;;;;;5072241;28;20502;-87
2023/04/22 07:40:24;;;;;;;1.30;1.02;;;;;;;;;;5086270;28;20045;-87
2023/04/22 07:42:49;;;;;;;1.20;1.00;;;;;;;;;;5073624;28;20050;-87
2023/04/22 07:45:15;;;;;;;0.85;0.85;;;;;;;;;;5070932;28;20119;-86
2023/04/22 07:47:40;;;;;;;2.80;1.10;;;;;;;;;;5072509;28;20024;-86
2023/04/22 07:50:06;;;;;;;0.82;0.82;;;;;;;;;;5088218;28;20490;-88
2023/04/22 07:52:32;;;;;;;1.77;1.02;;;;;;;;;;5072425;28;20075;-88
2023/04/22 07:54:57;;;;;;;2.05;0.82;;;;;;;;;;5040544;28;20041;-87
2023/04/22 07:57:23;;;;;;;4.18;1.50;;;;;;;;;;5073149;28;20081;-89
2023/04/22 07:59:49;;;;;;;2.20;1.17;;;;;;;;;;5072551;28;20128;-88
2023/04/22 08:02:14;;;;;;;1.40;0.90;;;;;;;;;;5069642;28;20021;-89
2023/04/22 08:04:40;;;;;;;1.05;0.90;;;;;;;;;;5069002;28;20028;-89
2023/04/22 08:07:05;;;;;;;2.03;0.77;;;;;;;;;;5071191;28;20032;-89
2023/04/22 08:09:31;;;;;;;2.10;0.88;;;;;;;;;;5070956;28;20029;-86
2023/04/22 08:11:57;;;;;;;2.35;1.00;;;;;;;;;;5067578;28;20032;-84
2023/04/22 08:14:22;;;;;;;4.03;1.30;;;;;;;;;;5069806;28;20028;-87
2023/04/22 08:16:51;;;;;;;2.25;0.82;;;;;;;;;;5061365;28;20035;-87
2023/04/22 08:19:18;;;;;;;1.85;0.70;;;;;;;;;;5052694;28;20467;-86
2023/04/22 08:21:43;;;;;;;1.00;0.90;;;;;;;;;;5069721;28;20113;-86
2023/04/22 08:24:09;;;;;;;1.63;0.90;;;;;;;;;;5070737;28;20068;-87
2023/04/22 08:26:35;;;;;;;2.17;0.73;;;;;;;;;;5072974;28;20060;-86
2023/04/22 08:29:02;;;;;;;1.00;0.90;;;;;;;;;;5071756;28;20044;-86
2023/04/22 08:31:28;;;;;;;1.00;0.90;;;;;;;;;;5068395;28;20041;-85
2023/04/22 08:33:53;;;;;;;1.10;1.00;;;;;;;;;;5073968;28;20371;-86
2023/04/22 08:36:21;;;;;;;2.70;0.70;;;;;;;;;;5083679;28;20064;-87
2023/04/22 08:38:48;;;;;;;0.77;0.70;;;;;;;;;;5073353;28;20531;-87
2023/04/22 08:41:14;;;;;;;1.00;0.80;;;;;;;;;;5073205;28;20024;-88
2023/04/22 08:43:40;;;;;;;0.77;0.77;;;;;;;;;;5074654;28;20056;-86
2023/04/22 08:46:09;;;;;;;1.60;1.10;;;;;;;;;;5073090;28;20032;-88
2023/04/22 08:48:36;;;;;;;1.33;0.80;;;;;;;;;;5073598;28;20029;-88
2023/04/22 08:51:01;;;;;;;2.03;0.90;;;;;;;;;;5072148;28;20474;-88
2023/04/22 08:53:27;;;;;;;1.45;0.80;;;;;;;;;;5073106;28;20032;-88
2023/04/22 08:55:55;;;;;;;0.73;0.70;;;;;;;;;;5074280;28;20371;-87
2023/04/22 08:58:21;;;;;;;1.98;0.90;;;;;;;;;;5073526;28;20098;-86
2023/04/22 09:00:47;;;;;;;1.52;0.90;;;;;;;;;;5075069;28;20028;-87
2023/04/22 09:03:14;;;;;;;1.05;0.80;;;;;;;;;;5074479;28;20040;-87
2023/04/22 09:05:40;;;;;;;0.80;0.80;;;;;;;;;;5069864;28;20051;-87
2023/04/22 09:08:06;;;;;;;0.80;0.80;;;;;;;;;;5073854;28;20704;-87
2023/04/22 09:10:54;;;;;;;1.90;0.85;;;;;;;;;;5088323;22;20044;-87
2023/04/22 09:13:20;;;;;;;1.42;0.95;;;;;;;;;;5091191;28;20048;-88
2023/04/22 09:15:46;;;;;;;0.80;0.70;;;;;;;;;;5076873;28;20020;-88
2023/04/22 09:18:16;;;;;;;1.25;0.82;;;;;;;;;;5077021;28;20040;-88
2023/04/22 09:20:41;;;;;;;2.88;0.70;;;;;;;;;;5074313;28;20067;-87
2023/04/22 09:23:07;;;;;;;0.98;0.70;;;;;;;;;;5077699;28;20086;-86
2023/04/22 09:25:36;;;;;;;0.70;0.70;;;;;;;;;;5076918;28;20043;-87
2023/04/22 09:28:02;;;;;;;1.15;0.70;;;;;;;;;;5078394;28;20035;-87
2023/04/22 09:30:29;;;;;;;2.45;0.90;;;;;;;;;;5079586;28;20025;-87
2023/04/22 09:33:05;;;;;;;1.45;0.80;;;;;;;;;;5071416;28;20061;-88
2023/04/22 09:35:36;;;;;;;0.88;0.60;;;;;;;;;;5082907;28;20017;-86
2023/04/22 09:38:05;;;;;;;1.20;0.80;;;;;;;;;;5080897;28;20119;-88
2023/04/22 09:40:31;;;;;;;0.88;0.80;;;;;;;;;;5076292;28;20029;-88
2023/04/22 09:42:58;;;;;;;1.50;0.90;;;;;;;;;;5079669;28;20029;-88
2023/04/22 09:45:38;;;;;;;0.88;0.70;;;;;;;;;;5080323;28;20024;-88
2023/04/22 09:48:11;;;;;;;2.97;0.80;;;;;;;;;;5091064;28;20078;-87
2023/04/22 09:50:38;;;;;;;2.00;0.80;;;;;;;;;;5079584;28;20111;-88
2023/04/22 09:53:07;;;;;;;0.65;0.65;;;;;;;;;;5078438;28;20036;-89
2023/04/22 09:55:35;;;;;;;1.45;0.80;;;;;;;;;;5074554;28;20035;-89
2023/04/22 09:58:07;;;;;;;1.13;0.80;;;;;;;;;;5075412;28;20032;-88
2023/04/22 10:00:36;;;;;;;0.80;0.80;;;;;;;;;;5084380;28;20485;-88
2023/04/22 10:03:03;;;;;;;1.42;0.90;;;;;;;;;;5080292;28;20135;-88
2023/04/22 10:05:29;;;;;;;0.80;0.80;;;;;;;;;;5095141;28;20040;-88
2023/04/22 10:07:55;;;;;;;1.30;0.70;;;;;;;;;;5074401;28;20040;-89
2023/04/22 10:10:21;;;;;;;0.65;0.65;;;;;;;;;;5076386;28;20024;-87
2023/04/22 10:12:47;;;;;;;1.92;0.80;;;;;;;;;;5074957;28;20055;-86
2023/04/22 10:15:13;;;;;;;0.63;0.63;;;;;;;;;;5074291;28;20115;-88
2023/04/22 10:17:40;;;;;;;1.30;0.75;;;;;;;;;;5074181;28;20167;-88
2023/04/22 10:20:12;;;;;;;1.20;0.55;;;;;;;;;;5070809;28;20043;-86
2023/04/22 10:22:41;;;;;;;0.60;0.60;;;;;;;;;;5071563;28;20032;-86
2023/04/22 10:25:11;;;;;;;2.30;1.10;;;;;;;;;;5055242;28;20033;-85
2023/04/22 10:27:38;;;;;;;2.17;0.90;;;;;;;;;;5071337;28;20040;-85
2023/04/22 10:30:04;;;;;;;0.60;0.60;;;;;;;;;;5072584;28;20108;-86
2023/04/22 10:32:29;;;;;;;2.47;0.73;;;;;;;;;;5072137;28;20464;-85
2023/04/22 10:35:13;;;;;;;1.23;0.70;;;;;;;;;;5071278;28;20028;-86
2023/04/22 10:37:45;;;;;;;2.40;0.80;;;;;;;;;;5090646;28;20072;-86
2023/04/22 10:40:15;;;;;;;1.42;0.80;;;;;;;;;;5052563;28;20029;-86
2023/04/22 10:42:45;;;;;;;1.92;0.90;;;;;;;;;;5059543;28;20040;-86
2023/04/22 10:45:13;;;;;;;1.00;0.90;;;;;;;;;;5088057;28;20059;-87
2023/04/22 10:47:40;;;;;;;1.13;1.02;;;;;;;;;;5087234;28;20032;-86
2023/04/22 10:50:12;;;;;;;2.03;1.00;;;;;;;;;;5069113;28;20040;-85
2023/04/22 10:52:39;;;;;;;4.30;1.25;;;;;;;;;;5071774;28;20086;-86
2023/04/22 10:55:05;;;;;;;1.38;0.90;;;;;;;;;;5070385;28;20101;-85
2023/04/22 10:57:37;;;;;;;2.00;1.00;;;;;;;;;;5071782;28;20036;-86
2023/04/22 11:00:39;;;;;;;1.65;1.00;;;;;;;;;;5071611;28;20417;-86
2023/04/22 11:03:04;;;;;;;1.92;1.20;;;;;;;;;;5061568;28;20040;-86
2023/04/22 11:05:31;;;;;;;1.60;1.10;;;;;;;;;;5071603;28;20028;-87
2023/04/22 11:08:13;;;;;;;1.58;1.23;;;;;;;;;;5069028;28;20052;-86
2023/04/22 11:10:41;;;;;;;1.58;1.10;;;;;;;;;;5069973;28;20032;-85
2023/04/22 11:13:13;;;;;;;1.13;1.02;;;;;;;;;;5069898;28;20036;-86
2023/04/22 11:15:40;;;;;;;1.20;1.10;;;;;;;;;;5070406;28;20028;-86
2023/04/22 11:18:26;;;;;;;3.20;1.00;;;;;;;;;;5070271;28;20072;-86
2023/04/22 11:20:52;;;;;;;1.27;1.10;;;;;;;;;;5051226;28;20033;-85
2023/04/22 11:23:27;;;;;;;2.05;1.10;;;;;;;;;;5068309;28;20029;-86
2023/04/22 11:26:04;;;;;;;1.58;1.10;;;;;;;;;;5071572;28;20386;-85
2023/04/22 11:28:30;;;;;;;3.15;1.50;;;;;;;;;;5053088;28;20029;-86
2023/04/22 11:31:08;;;;;;;1.40;1.10;;;;;;;;;;5053154;28;20067;-86
2023/04/22 11:33:34;;;;;;;1.52;1.08;;;;;;;;;;5067776;28;20052;-85
2023/04/22 11:36:00;;;;;;;1.10;1.00;;;;;;;;;;5061822;28;20093;-85
2023/04/22 11:38:26;;;;;;;2.45;1.05;;;;;;;;;;5071592;28;20068;-87
2023/04/22 11:40:54;;;;;;;1.50;1.10;;;;;;;;;;5070853;28;20412;-87
2023/04/22 11:43:19;;;;;;;2.88;1.15;;;;;;;;;;5069857;28;20405;-86
2023/04/22 11:45:45;;;;;;;2.63;0.80;;;;;;;;;;5068708;28;20031;-86
2023/04/22 11:48:10;;;;;;;1.55;0.93;;;;;;;;;;5069593;28;20119;-86
2023/04/22 11:50:38;;;;;;;3.65;1.10;;;;;;;;;;5070992;28;20024;-84
2023/04/22 11:53:11;;;;;;;2.08;1.05;;;;;;;;;;5072647;28;20101;-84
2023/04/22 11:55:40;;;;;;;1.08;0.98;;;;;;;;;;5074194;28;20032;-86
2023/04/22 11:58:08;;;;;;;2.30;1.00;;;;;;;;;;5071141;28;20446;-84
2023/04/22 12:00:42;;;;;;;0.90;0.90;;;;;;;;;;5071355;28;20473;-86
2023/04/22 12:03:11;;;;;;;0.93;0.80;;;;;;;;;;5067925;28;20145;-86
2023/04/22 12:05:44;;;;;;;1.35;1.00;;;;;;;;;;5067278;28;20044;-86
2023/04/22 12:08:15;;;;;;;1.52;1.02;;;;;;;;;;5073396;28;20035;-88
2023/04/22 12:10:53;;;;;;;2.92;1.08;;;;;;;;;;5076197;28;20036;-86
2023/04/22 12:13:18;;;;;;;2.05;1.05;;;;;;;;;;5074356;28;20055;-88
2023/04/22 12:15:44;;;;;;;1.40;0.90;;;;;;;;;;5073111;28;20037;-87
2023/04/22 12:18:11;;;;;;;0.90;0.90;;;;;;;;;;5073954;28;20033;-86
2023/04/22 12:20:40;;;;;;;1.25;0.82;;;;;;;;;;5076071;28;20030;-86
2023/04/22 12:23:14;;;;;;;1.63;0.80;;;;;;;;;;5074511;28;20024;-87
2023/04/22 12:25:40;;;;;;;1.23;0.93;;;;;;;;;;5076345;28;20051;-86
2023/04/22 12:28:06;;;;;;;1.00;0.90;;;;;;;;;;5073426;28;20059;-86
2023/04/22 12:30:31;;;;;;;1.98;1.00;;;;;;;;;;5076975;28;20032;-87
2023/04/22 12:32:57;;;;;;;1.63;1.00;;;;;;;;;;5077783;28;20157;-85
2023/04/22 12:35:23;;;;;;;1.55;0.80;;;;;;;;;;5081337;28;20033;-87
2023/04/22 12:37:48;;;;;;;1.10;0.95;;;;;;;;;;5057132;28;20035;-86
2023/04/22 12:40:14;;;;;;;1.48;1.05;;;;;;;;;;5075159;28;20162;-85
2023/04/22 12:42:39;;;;;;;1.30;0.90;;;;;;;;;;5073513;28;20043;-87
2023/04/22 12:45:05;;;;;;;1.98;1.00;;;;;;;;;;5075304;28;20032;-85
2023/04/22 12:47:31;;;;;;;1.50;1.10;;;;;;;;;;5074822;28;20667;-87
2023/04/22 12:49:59;;;;;;;4.07;1.00;;;;;;;;;;5074826;28;20047;-85
2023/04/22 12:52:24;;;;;;;0.80;0.80;;;;;;;;;;5073277;28;20036;-85
2023/04/22 12:54:50;;;;;;;2.17;1.10;;;;;;;;;;5075494;28;20039;-85
2023/04/22 12:57:15;;;;;;;0.95;0.80;;;;;;;;;;5056982;28;20032;-85
2023/04/22 12:59:41;;;;;;;1.40;1.10;;;;;;;;;;5075341;28;20047;-87
2023/04/22 13:02:06;;;;;;;1.17;1.05;;;;;;;;;;5076974;28;20107;-87
2023/04/22 13:04:31;;;;;;;1.50;0.90;;;;;;;;;;5073975;28;20075;-88
2023/04/22 13:06:57;;;;;;;1.17;1.00;;;;;;;;;;5077698;28;20033;-88
2023/04/22 13:09:24;;;;;;;1.67;1.00;;;;;;;;;;5075926;28;20038;-87
2023/04/22 13:11:51;;;;;;;1.15;0.95;;;;;;;;;;5076266;28;20139;-88
2023/04/22 13:14:17;;;;;;;1.02;0.93;;;;;;;;;;5073815;28;20470;-85
2023/04/22 13:16:43;;;;;;;2.28;1.30;;;;;;;;;;5076302;28;20036;-85
2023/04/22 13:19:08;;;;;;;3.85;1.80;;;;;;;;;;5074901;28;20092;-86
2023/04/22 13:21:34;;;;;;;3.80;2.92;;;;;;;;;;5092047;28;20426;-88
2023/04/22 13:24:00;;;;;;;7.45;4.22;;;;;;;;;;5076956;28;20040;-88
2023/04/22 13:26:26;;;;;;;2.50;1.70;;;;;;;;;;5076430;28;20039;-85
2023/04/22 13:28:51;;;;;;;3.22;1.80;;;;;;;;;;5075941;28;20041;-86
2023/04/22 13:31:17;;;;;;;5.38;2.63;;;;;;;;;;5071101;28;20040;-85
2023/04/22 13:33:43;;;;;;;1.85;1.27;;;;;;;;;;5074821;28;20037;-86
2023/04/22 13:36:09;;;;;;;2.53;1.40;;;;;;;;;;5077656;28;20478;-87
2023/04/22 13:38:35;;;;;;;3.85;1.13;;;;;;;;;;5073837;28;20040;-87
2023/04/22 13:41:00;;;;;;;1.80;1.42;;;;;;;;;;5075334;28;20024;-86
2023/04/22 13:43:26;;;;;;;1.90;1.42;;;;;;;;;;5075591;28;20040;-88
2023/04/22 13:45:52;;;;;;;1.75;1.10;;;;;;;;;;5087020;28;20260;-86
2023/04/22 13:48:17;;;;;;;2.13;1.30;;;;;;;;;;5077681;28;20029;-87
2023/04/22 13:50:43;;;;;;;1.85;1.10;;;;;;;;;;5056810;28;20047;-86
2023/04/22 13:53:10;;;;;;;2.20;1.10;;;;;;;;;;5073130;28;20040;-85
2023/04/22 13:55:36;;;;;;;2.53;1.80;;;;;;;;;;5073008;28;20032;-86
2023/04/22 13:58:04;;;;;;;3.00;2.13;;;;;;;;;;5073342;28;20043;-86
2023/04/22 14:00:30;;;;;;;2.92;1.80;;;;;;;;;;5073630;28;20055;-86
2023/04/22 14:02:55;;;;;;;6.90;3.17;;;;;;;;;;5070849;28;20506;-86
2023/04/22 14:05:21;;;;;;;2.10;1.42;;;;;;;;;;5070725;28;20044;-86
2023/04/22 14:07:46;;;;;;;3.15;2.17;;;;;;;;;;5072454;28;20383;-87
2023/04/22 14:10:12;;;;;;;2.53;1.50;;;;;;;;;;5071847;28;20040;-87
2023/04/22 14:12:38;;;;;;;3.42;2.03;;;;;;;;;;5053712;28;20094;-87
2023/04/22 14:15:05;;;;;;;3.22;1.63;;;;;;;;;;5073428;28;20040;-86
2023/04/22 14:17:31;;;;;;;1.50;1.20;;;;;;;;;;5073721;28;20639;-87
2023/04/22 14:19:57;;;;;;;4.75;1.50;;;;;;;;;;5046070;28;20513;-86
2023/04/22 14:22:22;;;;;;;25.08;20.35;;;;;;;;;;5052164;28;20043;-85
2023/04/22 14:24:48;;;;;;;22.42;17.05;;;;;;;;;;5086491;28;20410;-85
2023/04/22 14:27:13;;;;;;;28.52;24.05;;;;;;;;;;5071025;28;20116;-88
2023/04/22 14:29:39;;;;;;;11.07;7.38;;;;;;;;;;5068842;28;20131;-89
2023/04/22 14:32:05;;;;;;;15.20;11.25;;;;;;;;;;5080191;28;20062;-90
2023/04/22 14:34:30;;;;;;;11.35;7.68;;;;;;;;;;5067368;28;20044;-89
2023/04/22 14:36:56;;;;;;;6.60;2.78;;;;;;;;;;5070606;28;20109;-89
2023/04/22 14:39:21;;;;;;;4.55;2.08;;;;;;;;;;5071009;28;20044;-87
2023/04/22 14:41:47;;;;;;;24.02;13.30;;;;;;;;;;5071198;28;20037;-87
2023/04/22 14:44:13;;;;;;;4.65;2.10;;;;;;;;;;5071600;28;20041;-87